sensor_id;sensor_type;location;lat;lon;timestamp;temperature;humidity
70550;DHT22;58101;48.658;2.328;2022-12-24T00:01:23;11.00;99.90
70550;DHT22;58101;48.658;2.328;2022-12-24T00:03:49;11.00;99.90
70550;DHT22;58101;48.658;2.328;2022-12-24T00:06:18;10.90;99.90
70550;DHT22;58101;48.658;2.328;2022-12-24T00:08:44;10.80;99.90
70550;DHT22;58101;48.658;2.328;2022-12-24T00:11:09;10.80;99.90
70550;DHT22;58101;48.658;2.328;2022-12-24T00:13:35;10.90;99.90
70550;DHT22;58101;48.658;2.328;2022-12-24T00:16:00;10.70;99.90
70550;DHT22;58101;48.658;2.328;2022-12-24T00:18:26;10.80;99.90
70550;DHT22;58101;48.658;2.328;2022-12-24T00:20:52;10.80;99.90
70550;DHT22;58101;48.658;2.328;2022-12-24T00:23:19;10.80;99.90
70550;DHT22;58101;48.658;2.328;2022-12-24T00:25:45;10.80;99.90
70550;DHT22;58101;48.658;2.328;2022-12-24T00:28:12;10.70;99.90
70550;DHT22;58101;48.658;2.328;2022-12-24T00:30:39;10.70;99.90
70550;DHT22;58101;48.658;2.328;2022-12-24T00:33:05;10.70;99.90
70550;DHT22;58101;48.658;2.328;2022-12-24T00:35:32;10.80;99.90
70550;DHT22;58101;48.658;2.328;2022-12-24T00:37:58;10.70;99.90
70550;DHT22;58101;48.658;2.328;2022-12-24T00:40:23;10.70;99.90
70550;DHT22;58101;48.658;2.328;2022-12-24T00:42:49;10.70;99.90
70550;DHT22;58101;48.658;2.328;2022-12-24T00:45:15;10.70;99.90
70550;DHT22;58101;48.658;2.328;2022-12-24T00:47:40;10.70;99.90
70550;DHT22;58101;48.658;2.328;2022-12-24T00:50:06;10.70;99.90
70550;DHT22;58101;48.658;2.328;2022-12-24T00:52:32;10.70;99.90
70550;DHT22;58101;48.658;2.328;2022-12-24T00:54:58;10.80;99.90
70550;DHT22;58101;48.658;2.328;2022-12-24T00:57:24;10.70;99.90
70550;DHT22;58101;48.658;2.328;2022-12-24T00:59:49;10.70;99.90
70550;DHT22;58101;48.658;2.328;2022-12-24T01:02:15;10.70;99.90
70550;DHT22;58101;48.658;2.328;2022-12-24T01:04:40;10.70;99.90
70550;DHT22;58101;48.658;2.328;2022-12-24T01:07:25;10.70;99.90
70550;DHT22;58101;48.658;2.328;2022-12-24T01:09:50;10.70;99.90
70550;DHT22;58101;48.658;2.328;2022-12-24T01:12:16;10.70;99.90
70550;DHT22;58101;48.658;2.328;2022-12-24T01:14:42;10.70;99.90
70550;DHT22;58101;48.658;2.328;2022-12-24T01:17:07;10.70;99.90
70550;DHT22;58101;48.658;2.328;2022-12-24T01:19:33;10.70;99.90
70550;DHT22;58101;48.658;2.328;2022-12-24T01:21:58;10.70;99.90
70550;DHT22;58101;48.658;2.328;2022-12-24T01:24:24;10.80;99.90
70550;DHT22;58101;48.658;2.328;2022-12-24T01:26:50;10.70;99.90
70550;DHT22;58101;48.658;2.328;2022-12-24T01:29:16;10.70;99.90
70550;DHT22;58101;48.658;2.328;2022-12-24T01:31:42;10.80;99.90
70550;DHT22;58101;48.658;2.328;2022-12-24T01:34:07;10.70;99.90
70550;DHT22;58101;48.658;2.328;2022-12-24T01:36:34;10.70;99.90
70550;DHT22;58101;48.658;2.328;2022-12-24T01:39:00;10.90;99.90
70550;DHT22;58101;48.658;2.328;2022-12-24T01:41:25;10.80;99.90
70550;DHT22;58101;48.658;2.328;2022-12-24T01:44:29;10.70;99.90
70550;DHT22;58101;48.658;2.328;2022-12-24T01:47:13;10.80;99.90
70550;DHT22;58101;48.658;2.328;2022-12-24T01:49:58;10.80;99.90
70550;DHT22;58101;48.658;2.328;2022-12-24T01:52:29;10.80;99.90
70550;DHT22;58101;48.658;2.328;2022-12-24T01:55:14;10.80;99.90
70550;DHT22;58101;48.658;2.328;2022-12-24T01:57:45;10.70;99.90
70550;DHT22;58101;48.658;2.328;2022-12-24T02:00:14;10.80;99.90
70550;DHT22;58101;48.658;2.328;2022-12-24T02:02:42;10.80;99.90
70550;DHT22;58101;48.658;2.328;2022-12-24T02:05:33;10.80;99.90
70550;DHT22;58101;48.658;2.328;2022-12-24T02:08:02;10.80;99.90
70550;DHT22;58101;48.658;2.328;2022-12-24T02:10:28;10.80;99.90
70550;DHT22;58101;48.658;2.328;2022-12-24T02:12:54;10.80;99.90
70550;DHT22;58101;48.658;2.328;2022-12-24T02:15:21;10.90;99.90
70550;DHT22;58101;48.658;2.328;2022-12-24T02:17:59;10.90;99.90
70550;DHT22;58101;48.658;2.328;2022-12-24T02:32:09;10.80;99.90
70550;DHT22;58101;48.658;2.328;2022-12-24T02:34:39;10.80;99.90
70550;DHT22;58101;48.658;2.328;2022-12-24T02:37:24;10.80;99.90
70550;DHT22;58101;48.658;2.328;2022-12-24T02:39:59;10.70;99.90
70550;DHT22;58101;48.658;2.328;2022-12-24T02:42:31;10.80;99.90
70550;DHT22;58101;48.658;2.328;2022-12-24T02:45:04;10.70;99.90
70550;DHT22;58101;48.658;2.328;2022-12-24T02:47:31;10.70;99.90
70550;DHT22;58101;48.658;2.328;2022-12-24T02:49:57;10.80;99.90
70550;DHT22;58101;48.658;2.328;2022-12-24T02:54:59;10.80;99.90
70550;DHT22;58101;48.658;2.328;2022-12-24T02:57:27;10.70;99.90
70550;DHT22;58101;48.658;2.328;2022-12-24T03:00:06;10.80;99.90
70550;DHT22;58101;48.658;2.328;2022-12-24T03:05:51;10.80;99.90
70550;DHT22;58101;48.658;2.328;2022-12-24T03:08:52;10.80;99.90
70550;DHT22;58101;48.658;2.328;2022-12-24T03:11:19;10.80;99.90
70550;DHT22;58101;48.658;2.328;2022-12-24T03:13:45;10.80;99.90
70550;DHT22;58101;48.658;2.328;2022-12-24T03:16:14;10.80;99.90
70550;DHT22;58101;48.658;2.328;2022-12-24T03:18:44;10.80;99.90
70550;DHT22;58101;48.658;2.328;2022-12-24T03:21:31;10.80;99.90
70550;DHT22;58101;48.658;2.328;2022-12-24T03:23:58;10.80;99.90
70550;DHT22;58101;48.658;2.328;2022-12-24T03:26:24;10.80;99.90
70550;DHT22;58101;48.658;2.328;2022-12-24T03:28:51;10.80;99.90
70550;DHT22;58101;48.658;2.328;2022-12-24T03:31:17;10.80;99.90
70550;DHT22;58101;48.658;2.328;2022-12-24T03:33:43;10.80;99.90
70550;DHT22;58101;48.658;2.328;2022-12-24T03:36:09;10.80;99.90
70550;DHT22;58101;48.658;2.328;2022-12-24T03:38:35;10.80;99.90
70550;DHT22;58101;48.658;2.328;2022-12-24T03:41:01;10.90;99.90
70550;DHT22;58101;48.658;2.328;2022-12-24T03:43:27;10.80;99.90
70550;DHT22;58101;48.658;2.328;2022-12-24T03:45:53;10.80;99.90
70550;DHT22;58101;48.658;2.328;2022-12-24T03:48:18;10.80;99.90
70550;DHT22;58101;48.658;2.328;2022-12-24T03:50:44;10.80;99.90
70550;DHT22;58101;48.658;2.328;2022-12-24T03:53:09;10.80;99.90
70550;DHT22;58101;48.658;2.328;2022-12-24T03:55:36;10.70;99.90
70550;DHT22;58101;48.658;2.328;2022-12-24T03:58:02;10.80;99.90
70550;DHT22;58101;48.658;2.328;2022-12-24T04:00:27;10.80;99.90
70550;DHT22;58101;48.658;2.328;2022-12-24T04:02:53;10.70;99.90
70550;DHT22;58101;48.658;2.328;2022-12-24T04:05:19;10.70;99.90
70550;DHT22;58101;48.658;2.328;2022-12-24T04:07:45;10.70;99.90
70550;DHT22;58101;48.658;2.328;2022-12-24T04:10:12;10.70;99.90
70550;DHT22;58101;48.658;2.328;2022-12-24T04:12:38;10.70;99.90
70550;DHT22;58101;48.658;2.328;2022-12-24T04:15:04;10.60;99.90
70550;DHT22;58101;48.658;2.328;2022-12-24T04:17:30;10.60;99.90
70550;DHT22;58101;48.658;2.328;2022-12-24T04:19:56;10.60;99.90
70550;DHT22;58101;48.658;2.328;2022-12-24T04:22:22;10.70;99.90
70550;DHT22;58101;48.658;2.328;2022-12-24T04:24:47;10.60;99.90
70550;DHT22;58101;48.658;2.328;2022-12-24T04:27:14;10.60;99.90
70550;DHT22;58101;48.658;2.328;2022-12-24T04:29:39;10.60;99.90
70550;DHT22;58101;48.658;2.328;2022-12-24T04:32:05;10.50;99.90
70550;DHT22;58101;48.658;2.328;2022-12-24T04:34:31;10.70;99.90
70550;DHT22;58101;48.658;2.328;2022-12-24T04:36:56;10.60;99.90
70550;DHT22;58101;48.658;2.328;2022-12-24T04:39:22;10.60;99.90
70550;DHT22;58101;48.658;2.328;2022-12-24T04:41:48;10.70;99.90
70550;DHT22;58101;48.658;2.328;2022-12-24T04:44:13;10.60;99.90
70550;DHT22;58101;48.658;2.328;2022-12-24T04:46:39;10.60;99.90
70550;DHT22;58101;48.658;2.328;2022-12-24T04:49:07;10.70;99.90
70550;DHT22;58101;48.658;2.328;2022-12-24T04:51:32;10.80;99.90
70550;DHT22;58101;48.658;2.328;2022-12-24T04:53:58;10.70;99.90
70550;DHT22;58101;48.658;2.328;2022-12-24T04:56:26;10.70;99.90
70550;DHT22;58101;48.658;2.328;2022-12-24T04:58:52;10.70;99.90
70550;DHT22;58101;48.658;2.328;2022-12-24T05:01:28;10.70;99.90
70550;DHT22;58101;48.658;2.328;2022-12-24T05:03:54;10.80;99.90
70550;DHT22;58101;48.658;2.328;2022-12-24T05:06:23;10.80;99.90
70550;DHT22;58101;48.658;2.328;2022-12-24T05:08:49;10.80;99.90
70550;DHT22;58101;48.658;2.328;2022-12-24T05:11:15;10.80;99.90
70550;DHT22;58101;48.658;2.328;2022-12-24T05:13:42;10.90;99.90
70550;DHT22;58101;48.658;2.328;2022-12-24T05:16:09;10.90;99.90
70550;DHT22;58101;48.658;2.328;2022-12-24T05:18:35;10.90;99.90
70550;DHT22;58101;48.658;2.328;2022-12-24T05:21:00;10.90;99.90
70550;DHT22;58101;48.658;2.328;2022-12-24T05:23:26;11.00;99.90
70550;DHT22;58101;48.658;2.328;2022-12-24T05:26:25;10.90;99.90
70550;DHT22;58101;48.658;2.328;2022-12-24T05:28:53;11.00;99.90
70550;DHT22;58101;48.658;2.328;2022-12-24T05:31:20;11.10;99.90
70550;DHT22;58101;48.658;2.328;2022-12-24T05:33:46;10.90;99.90
70550;DHT22;58101;48.658;2.328;2022-12-24T05:36:13;10.90;99.90
70550;DHT22;58101;48.658;2.328;2022-12-24T05:38:39;10.90;99.90
70550;DHT22;58101;48.658;2.328;2022-12-24T05:41:05;10.90;99.90
70550;DHT22;58101;48.658;2.328;2022-12-24T05:43:31;11.00;99.90
70550;DHT22;58101;48.658;2.328;2022-12-24T05:46:03;10.80;99.90
70550;DHT22;58101;48.658;2.328;2022-12-24T05:48:29;10.80;99.90
70550;DHT22;58101;48.658;2.328;2022-12-24T05:50:55;10.80;99.90
70550;DHT22;58101;48.658;2.328;2022-12-24T05:53:21;10.80;99.90
70550;DHT22;58101;48.658;2.328;2022-12-24T05:55:47;10.80;99.90
70550;DHT22;58101;48.658;2.328;2022-12-24T05:58:13;10.80;99.90
70550;DHT22;58101;48.658;2.328;2022-12-24T06:00:38;10.80;99.90
70550;DHT22;58101;48.658;2.328;2022-12-24T06:03:04;10.70;99.90
70550;DHT22;58101;48.658;2.328;2022-12-24T06:05:30;10.80;99.90
70550;DHT22;58101;48.658;2.328;2022-12-24T06:07:55;10.70;99.90
70550;DHT22;58101;48.658;2.328;2022-12-24T06:10:21;10.70;99.90
70550;DHT22;58101;48.658;2.328;2022-12-24T06:12:47;10.60;99.90
70550;DHT22;58101;48.658;2.328;2022-12-24T06:15:13;10.60;99.90
70550;DHT22;58101;48.658;2.328;2022-12-24T06:17:38;10.60;99.90
70550;DHT22;58101;48.658;2.328;2022-12-24T06:20:05;10.60;99.90
70550;DHT22;58101;48.658;2.328;2022-12-24T06:22:31;10.60;99.90
70550;DHT22;58101;48.658;2.328;2022-12-24T06:24:56;10.50;99.90
70550;DHT22;58101;48.658;2.328;2022-12-24T06:27:22;10.50;99.90
70550;DHT22;58101;48.658;2.328;2022-12-24T06:29:47;10.50;99.90
70550;DHT22;58101;48.658;2.328;2022-12-24T06:32:13;10.40;99.90
70550;DHT22;58101;48.658;2.328;2022-12-24T06:34:39;10.50;99.90
70550;DHT22;58101;48.658;2.328;2022-12-24T06:37:04;10.50;99.90
70550;DHT22;58101;48.658;2.328;2022-12-24T06:39:30;10.40;99.90
70550;DHT22;58101;48.658;2.328;2022-12-24T06:41:55;10.40;99.90
70550;DHT22;58101;48.658;2.328;2022-12-24T06:44:21;10.40;99.90
70550;DHT22;58101;48.658;2.328;2022-12-24T06:46:47;10.30;99.90
70550;DHT22;58101;48.658;2.328;2022-12-24T06:49:12;10.30;99.90
70550;DHT22;58101;48.658;2.328;2022-12-24T06:51:38;10.30;99.90
70550;DHT22;58101;48.658;2.328;2022-12-24T06:54:04;10.30;99.90
70550;DHT22;58101;48.658;2.328;2022-12-24T06:56:29;10.30;99.90
70550;DHT22;58101;48.658;2.328;2022-12-24T06:58:55;10.30;99.90
70550;DHT22;58101;48.658;2.328;2022-12-24T07:01:21;10.20;99.90
70550;DHT22;58101;48.658;2.328;2022-12-24T07:03:48;10.20;99.90
70550;DHT22;58101;48.658;2.328;2022-12-24T07:08:42;10.20;99.90
70550;DHT22;58101;48.658;2.328;2022-12-24T07:11:07;10.10;99.90
70550;DHT22;58101;48.658;2.328;2022-12-24T07:13:33;10.20;99.90
70550;DHT22;58101;48.658;2.328;2022-12-24T07:16:00;10.10;99.90
70550;DHT22;58101;48.658;2.328;2022-12-24T07:18:27;10.20;99.90
70550;DHT22;58101;48.658;2.328;2022-12-24T07:20:53;10.20;99.90
70550;DHT22;58101;48.658;2.328;2022-12-24T07:23:18;10.10;99.90
70550;DHT22;58101;48.658;2.328;2022-12-24T07:25:44;10.20;99.90
70550;DHT22;58101;48.658;2.328;2022-12-24T07:28:10;10.30;99.90
70550;DHT22;58101;48.658;2.328;2022-12-24T07:30:35;10.20;99.90
70550;DHT22;58101;48.658;2.328;2022-12-24T07:33:01;10.40;99.90
70550;DHT22;58101;48.658;2.328;2022-12-24T07:35:26;10.30;99.90
70550;DHT22;58101;48.658;2.328;2022-12-24T07:37:52;10.20;99.90
70550;DHT22;58101;48.658;2.328;2022-12-24T07:40:18;10.20;99.90
70550;DHT22;58101;48.658;2.328;2022-12-24T07:42:43;10.30;99.90
70550;DHT22;58101;48.658;2.328;2022-12-24T07:45:09;10.30;99.90
70550;DHT22;58101;48.658;2.328;2022-12-24T07:47:35;10.30;99.90
70550;DHT22;58101;48.658;2.328;2022-12-24T07:50:02;10.40;99.90
70550;DHT22;58101;48.658;2.328;2022-12-24T07:52:28;10.40;99.90
70550;DHT22;58101;48.658;2.328;2022-12-24T07:54:54;10.40;99.90
70550;DHT22;58101;48.658;2.328;2022-12-24T07:57:20;10.40;99.90
70550;DHT22;58101;48.658;2.328;2022-12-24T07:59:45;10.40;99.90
70550;DHT22;58101;48.658;2.328;2022-12-24T08:02:11;10.50;99.90
70550;DHT22;58101;48.658;2.328;2022-12-24T08:04:37;10.40;99.90
70550;DHT22;58101;48.658;2.328;2022-12-24T08:07:04;10.50;99.90
70550;DHT22;58101;48.658;2.328;2022-12-24T08:09:34;10.50;99.90
70550;DHT22;58101;48.658;2.328;2022-12-24T08:12:00;10.50;99.90
70550;DHT22;58101;48.658;2.328;2022-12-24T08:14:30;10.50;99.90
70550;DHT22;58101;48.658;2.328;2022-12-24T08:16:56;10.50;99.90
70550;DHT22;58101;48.658;2.328;2022-12-24T08:19:22;10.50;99.90
70550;DHT22;58101;48.658;2.328;2022-12-24T08:21:48;10.50;99.90
70550;DHT22;58101;48.658;2.328;2022-12-24T08:24:14;10.60;99.90
70550;DHT22;58101;48.658;2.328;2022-12-24T08:26:39;10.50;99.90
70550;DHT22;58101;48.658;2.328;2022-12-24T08:29:05;10.50;99.90
70550;DHT22;58101;48.658;2.328;2022-12-24T08:31:31;10.60;99.90
70550;DHT22;58101;48.658;2.328;2022-12-24T08:34:05;10.50;99.90
70550;DHT22;58101;48.658;2.328;2022-12-24T08:36:31;10.50;99.90
70550;DHT22;58101;48.658;2.328;2022-12-24T08:38:57;10.60;99.90
70550;DHT22;58101;48.658;2.328;2022-12-24T08:41:23;10.60;99.90
70550;DHT22;58101;48.658;2.328;2022-12-24T08:43:48;10.60;99.90
70550;DHT22;58101;48.658;2.328;2022-12-24T08:46:14;10.60;99.90
70550;DHT22;58101;48.658;2.328;2022-12-24T08:48:40;10.60;99.90
70550;DHT22;58101;48.658;2.328;2022-12-24T08:51:11;10.60;99.90
70550;DHT22;58101;48.658;2.328;2022-12-24T08:53:37;10.60;99.90
70550;DHT22;58101;48.658;2.328;2022-12-24T08:56:05;10.60;99.90
70550;DHT22;58101;48.658;2.328;2022-12-24T08:58:31;10.60;99.90
70550;DHT22;58101;48.658;2.328;2022-12-24T09:00:57;10.60;99.90
70550;DHT22;58101;48.658;2.328;2022-12-24T09:03:23;10.70;99.90
70550;DHT22;58101;48.658;2.328;2022-12-24T09:05:49;10.70;99.90
70550;DHT22;58101;48.658;2.328;2022-12-24T09:08:15;10.70;99.90
70550;DHT22;58101;48.658;2.328;2022-12-24T09:10:41;10.70;99.90
70550;DHT22;58101;48.658;2.328;2022-12-24T09:13:06;10.70;99.90
70550;DHT22;58101;48.658;2.328;2022-12-24T09:15:32;10.70;99.90
70550;DHT22;58101;48.658;2.328;2022-12-24T09:17:58;10.70;99.90
70550;DHT22;58101;48.658;2.328;2022-12-24T09:20:23;10.70;99.90
70550;DHT22;58101;48.658;2.328;2022-12-24T09:22:49;10.70;99.90
70550;DHT22;58101;48.658;2.328;2022-12-24T09:25:15;10.70;99.90
70550;DHT22;58101;48.658;2.328;2022-12-24T09:27:40;10.70;99.90
70550;DHT22;58101;48.658;2.328;2022-12-24T09:30:07;10.70;99.90
70550;DHT22;58101;48.658;2.328;2022-12-24T09:32:33;10.70;99.90
70550;DHT22;58101;48.658;2.328;2022-12-24T09:34:59;10.70;99.90
70550;DHT22;58101;48.658;2.328;2022-12-24T09:37:25;10.60;99.90
70550;DHT22;58101;48.658;2.328;2022-12-24T09:39:50;10.70;99.90
70550;DHT22;58101;48.658;2.328;2022-12-24T09:45:27;10.70;99.90
70550;DHT22;58101;48.658;2.328;2022-12-24T09:48:20;10.70;99.90
70550;DHT22;58101;48.658;2.328;2022-12-24T09:51:28;10.80;99.90
70550;DHT22;58101;48.658;2.328;2022-12-24T09:53:59;10.70;99.90
70550;DHT22;58101;48.658;2.328;2022-12-24T09:56:30;10.80;99.90
70550;DHT22;58101;48.658;2.328;2022-12-24T09:59:00;10.80;99.90
70550;DHT22;58101;48.658;2.328;2022-12-24T10:01:29;10.80;99.90
70550;DHT22;58101;48.658;2.328;2022-12-24T10:04:06;10.90;99.90
70550;DHT22;58101;48.658;2.328;2022-12-24T10:11:59;11.10;99.90
70550;DHT22;58101;48.658;2.328;2022-12-24T10:17:48;11.10;99.90
70550;DHT22;58101;48.658;2.328;2022-12-24T10:20:38;11.20;99.90
70550;DHT22;58101;48.658;2.328;2022-12-24T10:26:09;11.20;99.90
70550;DHT22;58101;48.658;2.328;2022-12-24T10:28:55;11.20;99.90
70550;DHT22;58101;48.658;2.328;2022-12-24T10:31:25;11.30;99.90
70550;DHT22;58101;48.658;2.328;2022-12-24T10:34:00;11.30;99.90
70550;DHT22;58101;48.658;2.328;2022-12-24T10:36:28;11.40;99.90
70550;DHT22;58101;48.658;2.328;2022-12-24T10:38:55;11.50;99.90
70550;DHT22;58101;48.658;2.328;2022-12-24T10:41:21;11.70;99.90
70550;DHT22;58101;48.658;2.328;2022-12-24T10:43:48;11.80;99.90
70550;DHT22;58101;48.658;2.328;2022-12-24T10:46:37;11.70;99.90
70550;DHT22;58101;48.658;2.328;2022-12-24T10:51:52;11.80;99.90
70550;DHT22;58101;48.658;2.328;2022-12-24T10:54:23;11.80;99.90
70550;DHT22;58101;48.658;2.328;2022-12-24T10:56:51;11.80;99.90
70550;DHT22;58101;48.658;2.328;2022-12-24T11:02:25;11.70;99.90
70550;DHT22;58101;48.658;2.328;2022-12-24T11:04:52;11.60;99.90
70550;DHT22;58101;48.658;2.328;2022-12-24T11:07:19;11.50;99.90
70550;DHT22;58101;48.658;2.328;2022-12-24T11:12:22;11.60;99.90
70550;DHT22;58101;48.658;2.328;2022-12-24T11:14:59;11.60;99.90
70550;DHT22;58101;48.658;2.328;2022-12-24T11:17:25;11.60;99.90
70550;DHT22;58101;48.658;2.328;2022-12-24T11:19:52;11.60;99.90
70550;DHT22;58101;48.658;2.328;2022-12-24T11:22:19;11.60;99.90
70550;DHT22;58101;48.658;2.328;2022-12-24T11:24:59;11.60;99.90
70550;DHT22;58101;48.658;2.328;2022-12-24T11:27:42;11.70;99.90
70550;DHT22;58101;48.658;2.328;2022-12-24T11:30:25;11.70;99.90
70550;DHT22;58101;48.658;2.328;2022-12-24T11:33:15;11.70;99.90
70550;DHT22;58101;48.658;2.328;2022-12-24T11:35:47;11.70;99.90
70550;DHT22;58101;48.658;2.328;2022-12-24T11:38:20;11.70;99.90
70550;DHT22;58101;48.658;2.328;2022-12-24T11:40:49;11.70;99.90
70550;DHT22;58101;48.658;2.328;2022-12-24T11:45:47;11.70;99.90
70550;DHT22;58101;48.658;2.328;2022-12-24T11:48:39;11.70;99.90
70550;DHT22;58101;48.658;2.328;2022-12-24T11:51:08;11.60;99.90
70550;DHT22;58101;48.658;2.328;2022-12-24T11:53:47;11.60;99.90
70550;DHT22;58101;48.658;2.328;2022-12-24T11:56:36;11.60;99.90
70550;DHT22;58101;48.658;2.328;2022-12-24T11:59:14;11.60;99.90
70550;DHT22;58101;48.658;2.328;2022-12-24T12:04:47;11.60;99.90
70550;DHT22;58101;48.658;2.328;2022-12-24T12:07:29;11.70;99.90
70550;DHT22;58101;48.658;2.328;2022-12-24T12:12:44;11.50;99.90
70550;DHT22;58101;48.658;2.328;2022-12-24T12:15:15;11.50;99.90
70550;DHT22;58101;48.658;2.328;2022-12-24T12:18:15;11.60;99.90
70550;DHT22;58101;48.658;2.328;2022-12-24T12:20:47;11.60;99.90
70550;DHT22;58101;48.658;2.328;2022-12-24T12:23:35;11.60;99.90
70550;DHT22;58101;48.658;2.328;2022-12-24T12:26:13;11.50;99.90
70550;DHT22;58101;48.658;2.328;2022-12-24T12:29:09;11.60;99.90
70550;DHT22;58101;48.658;2.328;2022-12-24T12:31:44;11.60;99.90
70550;DHT22;58101;48.658;2.328;2022-12-24T12:37:13;11.70;99.90
70550;DHT22;58101;48.658;2.328;2022-12-24T12:39:41;11.70;99.90
70550;DHT22;58101;48.658;2.328;2022-12-24T12:42:29;11.70;99.90
70550;DHT22;58101;48.658;2.328;2022-12-24T12:45:05;11.60;99.90
70550;DHT22;58101;48.658;2.328;2022-12-24T12:48:22;11.60;99.90
70550;DHT22;58101;48.658;2.328;2022-12-24T12:50:56;11.60;99.90
70550;DHT22;58101;48.658;2.328;2022-12-24T12:54:03;11.60;99.90
70550;DHT22;58101;48.658;2.328;2022-12-24T12:56:33;11.60;99.90
70550;DHT22;58101;48.658;2.328;2022-12-24T12:59:19;11.60;99.90
70550;DHT22;58101;48.658;2.328;2022-12-24T13:07:50;11.70;99.90
70550;DHT22;58101;48.658;2.328;2022-12-24T13:13:47;11.70;99.90
70550;DHT22;58101;48.658;2.328;2022-12-24T13:16:56;11.70;99.90
70550;DHT22;58101;48.658;2.328;2022-12-24T13:19:37;11.70;99.90
70550;DHT22;58101;48.658;2.328;2022-12-24T13:22:14;11.70;99.90
70550;DHT22;58101;48.658;2.328;2022-12-24T13:24:47;11.70;99.90
70550;DHT22;58101;48.658;2.328;2022-12-24T13:27:18;11.70;99.90
70550;DHT22;58101;48.658;2.328;2022-12-24T13:30:05;11.70;99.90
70550;DHT22;58101;48.658;2.328;2022-12-24T13:32:46;11.70;99.90
70550;DHT22;58101;48.658;2.328;2022-12-24T13:37:44;11.80;99.90
70550;DHT22;58101;48.658;2.328;2022-12-24T13:50:51;11.90;99.90
70550;DHT22;58101;48.658;2.328;2022-12-24T13:53:27;11.90;99.90
70550;DHT22;58101;48.658;2.328;2022-12-24T13:55:57;11.90;99.90
70550;DHT22;58101;48.658;2.328;2022-12-24T13:58:24;11.80;99.90
70550;DHT22;58101;48.658;2.328;2022-12-24T14:00:56;11.80;99.90
70550;DHT22;58101;48.658;2.328;2022-12-24T14:03:30;11.80;99.90
70550;DHT22;58101;48.658;2.328;2022-12-24T14:06:00;11.80;99.90
70550;DHT22;58101;48.658;2.328;2022-12-24T14:08:34;11.80;99.90
70550;DHT22;58101;48.658;2.328;2022-12-24T14:11:06;11.90;99.90
70550;DHT22;58101;48.658;2.328;2022-12-24T14:16:31;11.80;99.90
70550;DHT22;58101;48.658;2.328;2022-12-24T14:19:14;11.80;99.90
70550;DHT22;58101;48.658;2.328;2022-12-24T14:22:03;11.80;99.90
70550;DHT22;58101;48.658;2.328;2022-12-24T14:24:41;11.70;99.90
70550;DHT22;58101;48.658;2.328;2022-12-24T14:29:49;11.80;99.90
70550;DHT22;58101;48.658;2.328;2022-12-24T14:32:16;11.70;99.90
70550;DHT22;58101;48.658;2.328;2022-12-24T14:34:42;11.80;99.90
70550;DHT22;58101;48.658;2.328;2022-12-24T14:37:11;11.80;99.90
70550;DHT22;58101;48.658;2.328;2022-12-24T14:39:44;11.60;99.90
70550;DHT22;58101;48.658;2.328;2022-12-24T14:45:24;11.60;99.90
70550;DHT22;58101;48.658;2.328;2022-12-24T14:50:33;11.60;99.90
70550;DHT22;58101;48.658;2.328;2022-12-24T14:55:34;11.60;99.90
70550;DHT22;58101;48.658;2.328;2022-12-24T14:58:35;11.60;99.90
70550;DHT22;58101;48.658;2.328;2022-12-24T15:01:25;11.60;99.90
70550;DHT22;58101;48.658;2.328;2022-12-24T15:06:53;11.50;99.90
70550;DHT22;58101;48.658;2.328;2022-12-24T15:11:51;11.50;99.90
70550;DHT22;58101;48.658;2.328;2022-12-24T15:14:19;11.50;99.90
70550;DHT22;58101;48.658;2.328;2022-12-24T15:17:01;11.50;99.90
70550;DHT22;58101;48.658;2.328;2022-12-24T15:19:33;11.40;99.90
70550;DHT22;58101;48.658;2.328;2022-12-24T15:22:02;11.40;99.90
70550;DHT22;58101;48.658;2.328;2022-12-24T15:24:31;11.40;99.90
70550;DHT22;58101;48.658;2.328;2022-12-24T15:26:58;11.40;99.90
70550;DHT22;58101;48.658;2.328;2022-12-24T15:29:29;11.40;99.90
70550;DHT22;58101;48.658;2.328;2022-12-24T15:31:59;11.40;99.90
70550;DHT22;58101;48.658;2.328;2022-12-24T15:34:38;11.40;99.90
70550;DHT22;58101;48.658;2.328;2022-12-24T15:39:42;11.30;99.90
70550;DHT22;58101;48.658;2.328;2022-12-24T15:42:09;11.30;99.90
70550;DHT22;58101;48.658;2.328;2022-12-24T15:44:41;11.30;99.90
70550;DHT22;58101;48.658;2.328;2022-12-24T15:47:22;11.30;99.90
70550;DHT22;58101;48.658;2.328;2022-12-24T15:49:51;11.30;99.90
70550;DHT22;58101;48.658;2.328;2022-12-24T15:52:19;11.20;99.90
70550;DHT22;58101;48.658;2.328;2022-12-24T15:54:49;11.20;99.90
70550;DHT22;58101;48.658;2.328;2022-12-24T15:57:28;11.20;99.90
70550;DHT22;58101;48.658;2.328;2022-12-24T15:59:55;11.20;99.90
70550;DHT22;58101;48.658;2.328;2022-12-24T16:02:34;11.20;99.90
70550;DHT22;58101;48.658;2.328;2022-12-24T16:16:37;11.10;99.90
70550;DHT22;58101;48.658;2.328;2022-12-24T16:19:05;11.10;99.90
70550;DHT22;58101;48.658;2.328;2022-12-24T16:21:32;11.10;99.90
70550;DHT22;58101;48.658;2.328;2022-12-24T16:24:05;11.10;99.90
70550;DHT22;58101;48.658;2.328;2022-12-24T16:26:33;11.10;99.90
70550;DHT22;58101;48.658;2.328;2022-12-24T16:28:59;11.10;99.90
70550;DHT22;58101;48.658;2.328;2022-12-24T16:31:34;11.10;99.90
70550;DHT22;58101;48.658;2.328;2022-12-24T16:34:01;11.10;99.90
70550;DHT22;58101;48.658;2.328;2022-12-24T16:36:28;11.00;99.90
70550;DHT22;58101;48.658;2.328;2022-12-24T16:38:54;11.00;99.90
70550;DHT22;58101;48.658;2.328;2022-12-24T16:41:46;11.00;99.90
70550;DHT22;58101;48.658;2.328;2022-12-24T16:44:30;11.10;99.90
70550;DHT22;58101;48.658;2.328;2022-12-24T16:46:58;10.90;99.90
70550;DHT22;58101;48.658;2.328;2022-12-24T16:49:24;10.90;99.90
70550;DHT22;58101;48.658;2.328;2022-12-24T16:51:50;10.90;99.90
70550;DHT22;58101;48.658;2.328;2022-12-24T16:54:16;10.90;99.90
70550;DHT22;58101;48.658;2.328;2022-12-24T16:56:44;10.90;99.90
70550;DHT22;58101;48.658;2.328;2022-12-24T16:59:19;10.90;99.90
70550;DHT22;58101;48.658;2.328;2022-12-24T17:01:45;10.90;99.90
70550;DHT22;58101;48.658;2.328;2022-12-24T17:04:12;10.90;99.90
70550;DHT22;58101;48.658;2.328;2022-12-24T17:06:38;10.80;99.90
70550;DHT22;58101;48.658;2.328;2022-12-24T17:09:04;10.80;99.90
70550;DHT22;58101;48.658;2.328;2022-12-24T17:11:31;10.70;99.90
70550;DHT22;58101;48.658;2.328;2022-12-24T17:13:56;10.80;99.90
70550;DHT22;58101;48.658;2.328;2022-12-24T17:16:22;10.80;99.90
70550;DHT22;58101;48.658;2.328;2022-12-24T17:18:48;10.90;99.90
70550;DHT22;58101;48.658;2.328;2022-12-24T17:21:14;10.90;99.90
70550;DHT22;58101;48.658;2.328;2022-12-24T17:23:41;10.80;99.90
70550;DHT22;58101;48.658;2.328;2022-12-24T17:26:09;10.80;99.90
70550;DHT22;58101;48.658;2.328;2022-12-24T17:28:35;10.80;99.90
70550;DHT22;58101;48.658;2.328;2022-12-24T17:31:06;10.80;99.90
70550;DHT22;58101;48.658;2.328;2022-12-24T17:33:31;10.80;99.90
70550;DHT22;58101;48.658;2.328;2022-12-24T17:35:57;10.90;99.90
70550;DHT22;58101;48.658;2.328;2022-12-24T17:38:22;10.70;99.90